Lopezville, Texas
Current Conditions -  °F | °C
As of 2:53 AM on Wednesday 26 Nov 2014 (Local Time) from KMFE Reporting Station
Clear Clear  
Wind Chill: 45°   Ceiling: Unl
Heat Index: 45°   Visibility: 10mi
Dew Point: 41°   Wind: 3mph
Humidity: 86%   Direction: 150°SSE
Pressure: 30.27"   Gusts: NA
Location:  26.158°N, 98.1543°W
Report Text: KMFE 260853Z 15003KT 10SM CLR 07/05 A3027 RMK AO2 SLP249 T00720050 58013
Loading
Personal Weather Stations






























Interactive Weather Map New forecast layout! Learn more

10-Day Weather Forecast

Advertisements
Track Severe Weather on mobile